Time;durP1;ratioP1;P1;durP2;ratioP2;P2;SDS_P1;SDS_P2;PMS_P1;PMS_P2;Temp;Humidity;BMP_temperature;BMP_pressure;BME280_temperature;BME280_humidity;BME280_pressure;Samples;Min_cycle;Max_cycle;Signal;HPM_P1;HPM_P2
2022/12/07 00:00:18;;;;;;;15.10;9.60;;;;;;;;;;5055192;28;20198;-95
2022/12/07 00:02:46;;;;;;;16.07;10.70;;;;;;;;;;5055256;28;20237;-95
2022/12/07 00:05:13;;;;;;;13.87;9.63;;;;;;;;;;5055410;28;20292;-95
2022/12/07 00:07:41;;;;;;;16.70;10.47;;;;;;;;;;5055782;28;20224;-95
2022/12/07 00:10:09;;;;;;;15.47;9.97;;;;;;;;;;5054890;28;20586;-95
2022/12/07 00:12:36;;;;;;;12.90;9.17;;;;;;;;;;5056170;28;20213;-96
2022/12/07 00:15:03;;;;;;;15.87;10.37;;;;;;;;;;5055996;28;20210;-86
2022/12/07 00:17:30;;;;;;;16.37;10.20;;;;;;;;;;5055954;28;20210;-95
2022/12/07 00:19:57;;;;;;;16.50;10.50;;;;;;;;;;5055154;28;20199;-95
2022/12/07 00:22:24;;;;;;;15.00;9.87;;;;;;;;;;5053994;28;20246;-95
2022/12/07 00:24:52;;;;;;;14.27;10.17;;;;;;;;;;5054864;28;20224;-95
2022/12/07 00:27:19;;;;;;;15.73;10.57;;;;;;;;;;5054269;28;20233;-94
2022/12/07 00:29:47;;;;;;;17.13;11.10;;;;;;;;;;5054991;28;20217;-95
2022/12/07 00:32:14;;;;;;;15.77;10.03;;;;;;;;;;5053226;28;20246;-95
2022/12/07 00:34:41;;;;;;;14.17;8.90;;;;;;;;;;5054841;28;20675;-95
2022/12/07 00:37:08;;;;;;;14.40;10.27;;;;;;;;;;5054239;28;20229;-95
2022/12/07 00:39:35;;;;;;;14.47;9.43;;;;;;;;;;5054678;28;20211;-95
2022/12/07 00:42:04;;;;;;;14.73;8.70;;;;;;;;;;5065681;28;20243;-95
2022/12/07 00:44:31;;;;;;;13.90;9.10;;;;;;;;;;5072422;28;20262;-95
2022/12/07 00:46:58;;;;;;;13.90;10.43;;;;;;;;;;5065691;28;20240;-95
2022/12/07 00:49:25;;;;;;;16.67;9.90;;;;;;;;;;5054425;28;20209;-95
2022/12/07 00:51:52;;;;;;;15.10;10.60;;;;;;;;;;5053462;28;20248;-95
2022/12/07 00:54:19;;;;;;;14.27;10.67;;;;;;;;;;5054213;28;20202;-95
2022/12/07 00:56:46;;;;;;;17.90;11.20;;;;;;;;;;5053476;28;20340;-95
2022/12/07 00:59:16;;;;;;;18.17;11.37;;;;;;;;;;5061259;28;20209;-95
2022/12/07 01:01:43;;;;;;;19.67;11.10;;;;;;;;;;5054585;28;20235;-95
2022/12/07 01:04:10;;;;;;;19.53;10.87;;;;;;;;;;5055127;28;20214;-95
2022/12/07 01:06:37;;;;;;;14.20;10.60;;;;;;;;;;5053513;28;20702;-95
2022/12/07 01:09:06;;;;;;;17.27;10.40;;;;;;;;;;5054484;28;20202;-95
2022/12/07 01:11:33;;;;;;;15.03;9.70;;;;;;;;;;5053633;28;20291;-95
2022/12/07 01:14:01;;;;;;;17.13;10.53;;;;;;;;;;5055070;28;20211;-95
2022/12/07 01:16:31;;;;;;;14.63;10.33;;;;;;;;;;5054769;28;20234;-95
2022/12/07 01:18:58;;;;;;;17.93;11.23;;;;;;;;;;5055120;28;20376;-95
2022/12/07 01:21:26;;;;;;;16.27;9.43;;;;;;;;;;5054272;28;20236;-94
2022/12/07 01:23:53;;;;;;;14.93;10.40;;;;;;;;;;5054216;28;20677;-95
2022/12/07 01:26:22;;;;;;;17.23;9.57;;;;;;;;;;5054637;28;20368;-95
2022/12/07 01:28:49;;;;;;;16.83;11.13;;;;;;;;;;5056138;28;20210;-95
2022/12/07 01:31:18;;;;;;;16.70;10.97;;;;;;;;;;5054987;28;20325;-95
2022/12/07 01:33:48;;;;;;;19.67;10.53;;;;;;;;;;5056137;28;20210;-95
2022/12/07 01:36:16;;;;;;;15.00;9.73;;;;;;;;;;5053861;28;20247;-95
2022/12/07 01:38:43;;;;;;;16.47;11.03;;;;;;;;;;5056912;28;20269;-95
2022/12/07 01:41:11;;;;;;;14.97;10.70;;;;;;;;;;5054966;28;20238;-95
2022/12/07 01:43:38;;;;;;;16.83;10.70;;;;;;;;;;5056715;28;20210;-95
2022/12/07 01:46:05;;;;;;;18.13;11.20;;;;;;;;;;5055602;28;20719;-94
2022/12/07 01:48:35;;;;;;;14.33;9.97;;;;;;;;;;5056380;28;20212;-95
2022/12/07 01:51:05;;;;;;;18.00;10.63;;;;;;;;;;5056149;28;20316;-95
2022/12/07 01:53:33;;;;;;;16.27;11.00;;;;;;;;;;5056689;28;20296;-95
2022/12/07 01:56:01;;;;;;;16.27;10.70;;;;;;;;;;5056801;28;20309;-96
2022/12/07 01:58:28;;;;;;;14.80;10.47;;;;;;;;;;5056690;28;20207;-95
2022/12/07 02:00:55;;;;;;;14.00;9.80;;;;;;;;;;5055974;28;20761;-95
2022/12/07 02:03:24;;;;;;;15.53;9.90;;;;;;;;;;5057996;28;20202;-94
2022/12/07 02:05:51;;;;;;;15.93;10.07;;;;;;;;;;5057022;28;20813;-95
2022/12/07 02:08:21;;;;;;;14.67;9.70;;;;;;;;;;5056863;28;20234;-95
2022/12/07 02:10:48;;;;;;;17.13;10.33;;;;;;;;;;5055192;28;20232;-95
2022/12/07 02:13:17;;;;;;;17.27;11.00;;;;;;;;;;5057696;28;20218;-95
2022/12/07 02:15:51;;;;;;;15.37;10.10;;;;;;;;;;5055958;28;20236;-96
2022/12/07 02:18:21;;;;;;;15.83;10.80;;;;;;;;;;5055479;28;20211;-95
2022/12/07 02:20:51;;;;;;;14.80;9.97;;;;;;;;;;5055201;28;20242;-95
2022/12/07 02:23:31;;;;;;;16.57;11.47;;;;;;;;;;5055775;28;20344;-95
2022/12/07 02:26:16;;;;;;;14.37;9.87;;;;;;;;;;5053986;28;20235;-95
2022/12/07 02:28:53;;;;;;;13.70;9.03;;;;;;;;;;5054018;28;20213;-95
2022/12/07 02:31:21;;;;;;;14.03;9.90;;;;;;;;;;5091573;22;20217;-83
2022/12/07 02:33:51;;;;;;;14.97;9.20;;;;;;;;;;5114044;28;20214;-83
2022/12/07 02:36:22;;;;;;;16.30;9.60;;;;;;;;;;5114815;28;20232;-86
2022/12/07 02:38:53;;;;;;;28.37;8.73;;;;;;;;;;5109544;28;20212;-85
2022/12/07 02:41:23;;;;;;;16.17;10.03;;;;;;;;;;5084581;28;20236;-85
2022/12/07 02:43:53;;;;;;;17.70;10.40;;;;;;;;;;5053403;28;20658;-85
2022/12/07 02:46:22;;;;;;;14.43;10.10;;;;;;;;;;5074229;28;20229;-85
2022/12/07 02:48:50;;;;;;;13.60;9.90;;;;;;;;;;5061241;28;20201;-85
2022/12/07 02:51:19;;;;;;;18.20;10.60;;;;;;;;;;5088680;28;20228;-84
2022/12/07 02:53:46;;;;;;;18.30;9.20;;;;;;;;;;5077390;28;20273;-85
2022/12/07 02:56:17;;;;;;;28.67;15.67;;;;;;;;;;5072551;28;20251;-85
2022/12/07 02:58:52;;;;;;;14.23;10.50;;;;;;;;;;5064840;28;20186;-86
2022/12/07 03:01:27;;;;;;;13.60;9.50;;;;;;;;;;5051701;28;20232;-85
2022/12/07 03:04:00;;;;;;;15.53;9.73;;;;;;;;;;5061704;28;20637;-85
2022/12/07 03:06:29;;;;;;;16.07;10.27;;;;;;;;;;5052426;28;20234;-85
2022/12/07 03:08:59;;;;;;;21.20;10.40;;;;;;;;;;5036154;28;20207;-85
2022/12/07 03:11:30;;;;;;;15.53;10.03;;;;;;;;;;5051801;28;20646;-85
2022/12/07 03:14:03;;;;;;;17.07;9.80;;;;;;;;;;5043131;28;20191;-85
2022/12/07 03:16:33;;;;;;;17.87;11.17;;;;;;;;;;5080515;28;20651;-85
2022/12/07 03:19:02;;;;;;;20.77;9.60;;;;;;;;;;5095370;28;20293;-85
2022/12/07 03:21:33;;;;;;;14.30;10.30;;;;;;;;;;5095797;28;20250;-85
2022/12/07 03:24:02;;;;;;;11.60;7.50;;;;;;;;;;5060758;28;20193;-85
2022/12/07 03:26:32;;;;;;;13.17;9.10;;;;;;;;;;5076112;28;20250;-85
2022/12/07 03:29:01;;;;;;;16.23;10.03;;;;;;;;;;5092791;28;20657;-85
2022/12/07 03:31:33;;;;;;;14.30;9.90;;;;;;;;;;5083980;28;20229;-85
2022/12/07 03:34:07;;;;;;;14.60;9.73;;;;;;;;;;5095876;28;20737;-85
2022/12/07 03:36:39;;;;;;;14.03;9.20;;;;;;;;;;5077319;28;20236;-85
2022/12/07 03:39:13;;;;;;;14.07;8.93;;;;;;;;;;5094632;28;20195;-85
2022/12/07 03:41:40;;;;;;;10.83;8.40;;;;;;;;;;5094299;28;20228;-85
2022/12/07 03:44:07;;;;;;;6.10;5.43;;;;;;;;;;5080467;28;20215;-85
2022/12/07 03:46:38;;;;;;;11.97;8.73;;;;;;;;;;5094851;28;20237;-85
2022/12/07 03:49:10;;;;;;;12.47;9.07;;;;;;;;;;5083054;28;20276;-85
2022/12/07 03:51:40;;;;;;;13.23;8.30;;;;;;;;;;5091379;28;20233;-85
2022/12/07 03:54:11;;;;;;;11.60;7.63;;;;;;;;;;5079082;28;20201;-85
2022/12/07 03:56:38;;;;;;;10.83;8.23;;;;;;;;;;5095078;28;20240;-85
2022/12/07 03:59:05;;;;;;;11.07;8.10;;;;;;;;;;5078336;28;20562;-85
2022/12/07 04:01:33;;;;;;;9.07;6.77;;;;;;;;;;5092343;28;20232;-85
2022/12/07 04:04:00;;;;;;;10.43;7.43;;;;;;;;;;5095806;28;20205;-85
2022/12/07 04:06:28;;;;;;;11.03;7.47;;;;;;;;;;5089527;28;20637;-85
2022/12/07 04:08:55;;;;;;;11.63;7.77;;;;;;;;;;5081278;28;20201;-85
2022/12/07 04:11:22;;;;;;;10.33;7.17;;;;;;;;;;5087306;28;20243;-85
2022/12/07 04:16:34;;;;;;;9.93;7.00;;;;;;;;;;5080668;28;20281;-85
2022/12/07 04:19:01;;;;;;;16.17;7.37;;;;;;;;;;5073417;28;20203;-84
2022/12/07 04:21:30;;;;;;;9.67;6.30;;;;;;;;;;5073120;28;20237;-85
2022/12/07 04:23:57;;;;;;;9.03;6.87;;;;;;;;;;5073674;28;20587;-85
2022/12/07 04:26:24;;;;;;;10.67;7.47;;;;;;;;;;5072924;28;20229;-85
2022/12/07 04:28:51;;;;;;;9.83;5.90;;;;;;;;;;5073253;28;20228;-85
2022/12/07 04:31:18;;;;;;;5.50;4.97;;;;;;;;;;5072818;28;20243;-84
2022/12/07 04:33:45;;;;;;;5.70;5.20;;;;;;;;;;5073186;28;20213;-87
2022/12/07 04:36:12;;;;;;;10.10;7.00;;;;;;;;;;5073187;28;20242;-84
2022/12/07 04:38:41;;;;;;;12.77;6.90;;;;;;;;;;5072997;28;20209;-85
2022/12/07 04:41:08;;;;;;;7.63;6.50;;;;;;;;;;5081613;28;20242;-84
2022/12/07 04:43:36;;;;;;;8.07;6.53;;;;;;;;;;5093437;28;20204;-86
2022/12/07 04:46:03;;;;;;;10.53;7.00;;;;;;;;;;5083737;28;20725;-84
2022/12/07 04:48:30;;;;;;;8.97;6.90;;;;;;;;;;5072691;28;20214;-84
2022/12/07 04:50:57;;;;;;;8.53;7.10;;;;;;;;;;5072675;28;20239;-84
2022/12/07 04:53:24;;;;;;;7.70;4.80;;;;;;;;;;5072978;28;20211;-84
2022/12/07 04:55:53;;;;;;;8.30;6.47;;;;;;;;;;5072505;28;20233;-84
2022/12/07 04:58:20;;;;;;;7.43;6.50;;;;;;;;;;5073269;28;20206;-85
2022/12/07 05:00:47;;;;;;;7.27;5.83;;;;;;;;;;5072787;28;20257;-84
2022/12/07 05:03:14;;;;;;;8.50;6.00;;;;;;;;;;5056678;28;20205;-84
2022/12/07 05:05:42;;;;;;;7.53;5.93;;;;;;;;;;5058331;28;20231;-85
2022/12/07 05:08:09;;;;;;;7.40;5.97;;;;;;;;;;5073460;28;20234;-86
2022/12/07 05:10:36;;;;;;;6.87;5.63;;;;;;;;;;5072300;28;20232;-83
2022/12/07 05:13:04;;;;;;;8.73;5.77;;;;;;;;;;5073854;28;20248;-84
2022/12/07 05:15:32;;;;;;;10.10;7.33;;;;;;;;;;5071913;28;20235;-84
2022/12/07 05:17:59;;;;;;;10.30;7.17;;;;;;;;;;5072156;28;20220;-85
2022/12/07 05:20:26;;;;;;;8.57;6.03;;;;;;;;;;5071836;28;20249;-84
2022/12/07 05:22:53;;;;;;;12.67;7.27;;;;;;;;;;5071984;28;20614;-85
2022/12/07 05:25:20;;;;;;;12.67;6.97;;;;;;;;;;5070832;28;20667;-84
2022/12/07 05:27:47;;;;;;;9.03;6.30;;;;;;;;;;5071648;28;20209;-85
2022/12/07 05:30:15;;;;;;;10.83;7.13;;;;;;;;;;5071367;28;20213;-84
2022/12/07 05:32:43;;;;;;;10.23;6.83;;;;;;;;;;5071605;28;20232;-84
2022/12/07 05:35:10;;;;;;;8.97;6.63;;;;;;;;;;5071656;28;20209;-84
2022/12/07 05:37:38;;;;;;;9.60;6.57;;;;;;;;;;5070740;28;20215;-87
2022/12/07 05:40:06;;;;;;;8.93;6.37;;;;;;;;;;5071028;28;20201;-87
2022/12/07 05:42:33;;;;;;;7.37;6.50;;;;;;;;;;5063871;28;20697;-86
2022/12/07 05:45:00;;;;;;;7.70;6.63;;;;;;;;;;5072617;28;20779;-87
2022/12/07 05:47:28;;;;;;;8.67;6.40;;;;;;;;;;5072123;28;20211;-86
2022/12/07 05:49:55;;;;;;;11.60;7.30;;;;;;;;;;5071122;28;20209;-85
2022/12/07 05:52:23;;;;;;;10.40;7.57;;;;;;;;;;5071144;28;20232;-86
2022/12/07 05:54:50;;;;;;;12.90;8.07;;;;;;;;;;5071592;28;20216;-86
2022/12/07 05:57:17;;;;;;;10.07;7.33;;;;;;;;;;5071890;28;20241;-85
2022/12/07 05:59:43;;;;;;;13.13;7.70;;;;;;;;;;5070946;28;20201;-84
2022/12/07 06:02:11;;;;;;;9.40;7.20;;;;;;;;;;5070731;28;20291;-84
2022/12/07 06:04:40;;;;;;;11.83;7.60;;;;;;;;;;5071350;28;20213;-84
2022/12/07 06:07:08;;;;;;;13.50;7.80;;;;;;;;;;5063466;28;20238;-84
2022/12/07 06:09:35;;;;;;;13.80;8.73;;;;;;;;;;5070948;28;20208;-84
2022/12/07 06:14:48;;;;;;;10.83;8.10;;;;;;;;;;5051092;28;20671;-84
2022/12/07 06:17:15;;;;;;;11.80;8.17;;;;;;;;;;5062457;28;20248;-84
2022/12/07 06:19:43;;;;;;;10.70;7.60;;;;;;;;;;5071317;28;20672;-84
2022/12/07 06:22:11;;;;;;;18.40;9.47;;;;;;;;;;5070710;28;20262;-84
2022/12/07 06:24:38;;;;;;;12.30;7.93;;;;;;;;;;5070946;28;20224;-84
2022/12/07 06:27:06;;;;;;;11.70;8.23;;;;;;;;;;5070118;28;20226;-84
2022/12/07 06:29:36;;;;;;;10.43;7.90;;;;;;;;;;5070296;28;20205;-84
2022/12/07 06:32:04;;;;;;;10.83;8.20;;;;;;;;;;5077272;28;20232;-85
2022/12/07 06:34:32;;;;;;;9.23;7.03;;;;;;;;;;5080048;28;20198;-84
2022/12/07 06:37:02;;;;;;;10.37;8.07;;;;;;;;;;5078682;28;20611;-84
2022/12/07 06:39:30;;;;;;;11.67;8.23;;;;;;;;;;5073380;28;20403;-84
2022/12/07 06:41:57;;;;;;;9.97;7.67;;;;;;;;;;5074290;28;20236;-84
2022/12/07 06:44:24;;;;;;;11.60;8.07;;;;;;;;;;5074716;28;20196;-84
2022/12/07 06:46:54;;;;;;;12.93;7.70;;;;;;;;;;5074187;28;20585;-84
2022/12/07 06:49:21;;;;;;;10.37;6.40;;;;;;;;;;5074923;28;20200;-84
2022/12/07 06:51:48;;;;;;;9.00;6.77;;;;;;;;;;5074447;28;20233;-84
2022/12/07 06:54:17;;;;;;;11.47;7.80;;;;;;;;;;5075091;28;20200;-83
2022/12/07 06:56:44;;;;;;;10.80;7.47;;;;;;;;;;5074383;28;20249;-84
2022/12/07 06:59:11;;;;;;;12.77;8.53;;;;;;;;;;5071637;28;20231;-84
2022/12/07 07:01:38;;;;;;;10.43;8.40;;;;;;;;;;5073208;28;20244;-84
2022/12/07 07:04:05;;;;;;;14.37;8.57;;;;;;;;;;5073406;28;20203;-83
2022/12/07 07:06:33;;;;;;;11.63;8.23;;;;;;;;;;5062336;28;20233;-84
2022/12/07 07:09:00;;;;;;;10.23;6.77;;;;;;;;;;5055503;28;20212;-84
2022/12/07 07:11:28;;;;;;;12.07;8.90;;;;;;;;;;5068721;28;20242;-84
2022/12/07 07:14:01;;;;;;;11.93;8.20;;;;;;;;;;5073660;28;20552;-84
2022/12/07 07:16:29;;;;;;;11.90;8.60;;;;;;;;;;5073133;28;20235;-84
2022/12/07 07:18:56;;;;;;;12.73;8.90;;;;;;;;;;5073843;28;20205;-84
2022/12/07 07:21:23;;;;;;;13.00;9.00;;;;;;;;;;5073428;28;20247;-84
2022/12/07 07:23:50;;;;;;;10.97;8.30;;;;;;;;;;5073713;28;20193;-84
2022/12/07 07:26:17;;;;;;;14.37;8.40;;;;;;;;;;5073262;28;20235;-84
2022/12/07 07:28:45;;;;;;;12.67;8.53;;;;;;;;;;5073573;28;20208;-84
2022/12/07 07:31:12;;;;;;;13.63;7.70;;;;;;;;;;5073063;28;20235;-84
2022/12/07 07:33:40;;;;;;;14.40;7.97;;;;;;;;;;5073425;28;20235;-84
2022/12/07 07:36:07;;;;;;;13.50;8.80;;;;;;;;;;5072838;28;20240;-83
2022/12/07 07:38:34;;;;;;;12.43;8.50;;;;;;;;;;5073386;28;20232;-84
2022/12/07 07:41:01;;;;;;;13.97;8.87;;;;;;;;;;5072575;28;20237;-83
2022/12/07 07:43:29;;;;;;;14.30;8.70;;;;;;;;;;5073393;28;20201;-83
2022/12/07 07:45:57;;;;;;;12.37;8.73;;;;;;;;;;5073043;28;20240;-84
2022/12/07 07:48:25;;;;;;;14.80;8.80;;;;;;;;;;5073053;28;20212;-83
2022/12/07 07:50:52;;;;;;;12.77;9.07;;;;;;;;;;5072650;28;20289;-84
2022/12/07 07:53:19;;;;;;;15.37;11.13;;;;;;;;;;5073335;28;20244;-83
2022/12/07 07:55:52;;;;;;;13.47;9.63;;;;;;;;;;5072838;28;20247;-84
2022/12/07 07:58:19;;;;;;;11.97;8.43;;;;;;;;;;5073097;28;20246;-84
2022/12/07 08:00:46;;;;;;;14.53;8.83;;;;;;;;;;5072585;28;20233;-83
2022/12/07 08:03:15;;;;;;;11.03;8.77;;;;;;;;;;5073290;28;20212;-84
2022/12/07 08:05:42;;;;;;;10.93;8.30;;;;;;;;;;5072361;28;20226;-83
2022/12/07 08:08:09;;;;;;;10.30;8.07;;;;;;;;;;5072689;28;20220;-84
2022/12/07 08:10:37;;;;;;;14.73;10.30;;;;;;;;;;5072353;28;20225;-84
2022/12/07 08:13:14;;;;;;;14.33;9.27;;;;;;;;;;5072842;28;20236;-84
2022/12/07 08:15:42;;;;;;;14.80;7.67;;;;;;;;;;5072457;28;20236;-83
2022/12/07 08:18:09;;;;;;;11.80;8.53;;;;;;;;;;5072661;28;20207;-84
2022/12/07 08:20:38;;;;;;;12.30;8.73;;;;;;;;;;5072231;28;20254;-83
2022/12/07 08:23:05;;;;;;;10.90;8.43;;;;;;;;;;5072774;28;20213;-84
2022/12/07 08:25:33;;;;;;;12.33;8.57;;;;;;;;;;5072094;28;20232;-84
2022/12/07 08:28:01;;;;;;;10.70;8.10;;;;;;;;;;5072144;28;20591;-83
2022/12/07 08:30:28;;;;;;;15.77;8.37;;;;;;;;;;5072081;28;20262;-84
2022/12/07 08:32:55;;;;;;;14.83;8.40;;;;;;;;;;5072980;28;20224;-84
2022/12/07 08:35:23;;;;;;;12.77;8.07;;;;;;;;;;5071967;28;20248;-83
2022/12/07 08:37:51;;;;;;;14.60;9.37;;;;;;;;;;5071968;28;20326;-83
2022/12/07 08:40:18;;;;;;;12.07;9.20;;;;;;;;;;5071879;28;20215;-83
2022/12/07 08:42:47;;;;;;;12.93;8.50;;;;;;;;;;5071947;28;20225;-84
2022/12/07 08:45:15;;;;;;;13.50;8.80;;;;;;;;;;5071685;28;20209;-82
2022/12/07 08:47:45;;;;;;;14.90;9.03;;;;;;;;;;5072064;28;20557;-82
2022/12/07 08:50:13;;;;;;;13.43;9.17;;;;;;;;;;5071712;28;20192;-82
2022/12/07 08:52:40;;;;;;;12.70;8.13;;;;;;;;;;5071316;28;20234;-82
2022/12/07 08:55:10;;;;;;;12.60;8.77;;;;;;;;;;5071499;28;20240;-82
2022/12/07 08:57:38;;;;;;;12.80;9.03;;;;;;;;;;5071873;28;20600;-82
2022/12/07 09:00:05;;;;;;;13.53;9.10;;;;;;;;;;5071246;28;20539;-82
2022/12/07 09:02:32;;;;;;;12.50;8.23;;;;;;;;;;5071777;28;20596;-83
2022/12/07 09:05:00;;;;;;;11.57;9.33;;;;;;;;;;5071814;28;20212;-84
2022/12/07 09:07:27;;;;;;;11.07;7.30;;;;;;;;;;5071403;28;21080;-85
2022/12/07 09:09:54;;;;;;;14.30;10.70;;;;;;;;;;5071736;28;20207;-84
2022/12/07 09:12:22;;;;;;;13.33;9.77;;;;;;;;;;5071084;28;20241;-84
2022/12/07 09:14:50;;;;;;;15.17;8.90;;;;;;;;;;5071569;28;20680;-83
2022/12/07 09:17:17;;;;;;;11.63;8.43;;;;;;;;;;5071019;28;20341;-83
2022/12/07 09:19:44;;;;;;;12.97;9.23;;;;;;;;;;5071798;28;20205;-83
2022/12/07 09:22:11;;;;;;;11.87;8.97;;;;;;;;;;5070840;28;20314;-83
2022/12/07 09:24:38;;;;;;;11.03;8.73;;;;;;;;;;5071465;28;20262;-84
2022/12/07 09:27:05;;;;;;;12.33;9.37;;;;;;;;;;5071297;28;20236;-84
2022/12/07 09:29:34;;;;;;;11.73;9.30;;;;;;;;;;5071402;28;20218;-83
2022/12/07 09:32:01;;;;;;;13.00;9.23;;;;;;;;;;5070594;28;20242;-83
2022/12/07 09:34:28;;;;;;;14.93;8.77;;;;;;;;;;5071514;28;20232;-83
2022/12/07 09:36:55;;;;;;;11.73;7.93;;;;;;;;;;5070852;28;20236;-83
2022/12/07 09:39:22;;;;;;;9.30;7.83;;;;;;;;;;5071179;28;20213;-83
2022/12/07 09:41:49;;;;;;;12.40;8.73;;;;;;;;;;5070748;28;20657;-83
2022/12/07 09:44:19;;;;;;;12.37;9.30;;;;;;;;;;5071793;28;20572;-83
2022/12/07 09:46:49;;;;;;;10.17;8.20;;;;;;;;;;5070857;28;20271;-83
2022/12/07 09:49:18;;;;;;;11.83;8.23;;;;;;;;;;5071174;28;20208;-83
2022/12/07 09:51:45;;;;;;;12.07;7.93;;;;;;;;;;5070548;28;20240;-83
2022/12/07 09:54:14;;;;;;;11.23;8.73;;;;;;;;;;5071156;28;20693;-83
2022/12/07 09:56:41;;;;;;;12.97;8.20;;;;;;;;;;5070681;28;20754;-83
2022/12/07 09:59:13;;;;;;;10.93;7.30;;;;;;;;;;5070977;28;20578;-82
2022/12/07 10:01:41;;;;;;;10.90;8.47;;;;;;;;;;5070751;28;20241;-83
2022/12/07 10:04:13;;;;;;;12.63;8.10;;;;;;;;;;5072356;28;20319;-83
2022/12/07 10:06:40;;;;;;;9.97;7.83;;;;;;;;;;5075021;28;20647;-83
2022/12/07 10:09:11;;;;;;;11.17;7.13;;;;;;;;;;5075046;28;20213;-82
2022/12/07 10:11:53;;;;;;;9.47;7.30;;;;;;;;;;5075008;28;20282;-83
2022/12/07 10:14:20;;;;;;;10.17;7.43;;;;;;;;;;5073307;28;20721;-83
2022/12/07 10:16:48;;;;;;;9.43;7.23;;;;;;;;;;5073055;28;20233;-83
2022/12/07 10:19:24;;;;;;;8.07;6.47;;;;;;;;;;5072711;28;20703;-82
2022/12/07 10:22:02;;;;;;;13.67;8.27;;;;;;;;;;5072047;28;20228;-83
2022/12/07 10:24:29;;;;;;;8.97;6.90;;;;;;;;;;5072311;28;20200;-83
2022/12/07 10:26:57;;;;;;;9.63;7.63;;;;;;;;;;5072701;28;20597;-82
2022/12/07 10:29:25;;;;;;;12.60;7.30;;;;;;;;;;5072127;28;20212;-83
2022/12/07 10:31:55;;;;;;;12.60;7.43;;;;;;;;;;5071263;28;20243;-83
2022/12/07 10:34:25;;;;;;;8.47;7.03;;;;;;;;;;5072835;28;20213;-82
2022/12/07 10:36:52;;;;;;;10.10;7.70;;;;;;;;;;5071981;28;20248;-83
2022/12/07 10:39:20;;;;;;;11.67;7.63;;;;;;;;;;5072628;28;20202;-83
2022/12/07 10:41:57;;;;;;;9.53;7.03;;;;;;;;;;5072953;28;20229;-83
2022/12/07 10:44:25;;;;;;;11.40;7.73;;;;;;;;;;5072588;28;20202;-83
2022/12/07 10:47:09;;;;;;;12.10;8.43;;;;;;;;;;5071592;28;20244;-84
2022/12/07 10:49:52;;;;;;;12.73;8.00;;;;;;;;;;5073212;28;20206;-83
2022/12/07 10:52:23;;;;;;;9.13;7.87;;;;;;;;;;5072112;28;20240;-83
2022/12/07 10:54:55;;;;;;;9.40;6.77;;;;;;;;;;5072131;28;20229;-83
2022/12/07 10:57:28;;;;;;;9.93;7.87;;;;;;;;;;5071082;28;20241;-83
2022/12/07 11:00:03;;;;;;;11.20;7.90;;;;;;;;;;5072652;28;20197;-83
2022/12/07 11:02:47;;;;;;;7.87;6.17;;;;;;;;;;5072369;28;20228;-83
2022/12/07 11:05:19;;;;;;;9.17;7.00;;;;;;;;;;5072430;28;20201;-83
2022/12/07 11:07:51;;;;;;;11.67;8.13;;;;;;;;;;5071724;28;20215;-83
2022/12/07 11:10:20;;;;;;;11.60;7.53;;;;;;;;;;5071830;28;20803;-83
2022/12/07 11:13:02;;;;;;;13.33;9.53;;;;;;;;;;5072217;28;20228;-83
2022/12/07 11:15:32;;;;;;;10.47;8.30;;;;;;;;;;5068570;28;20232;-83
2022/12/07 11:18:05;;;;;;;11.63;7.60;;;;;;;;;;5070845;28;20593;-83
2022/12/07 11:20:41;;;;;;;10.70;7.03;;;;;;;;;;5071800;28;20736;-83
2022/12/07 11:23:14;;;;;;;12.10;7.40;;;;;;;;;;5072015;28;20225;-83
2022/12/07 11:25:45;;;;;;;10.33;7.20;;;;;;;;;;5070544;28;20616;-83
2022/12/07 11:28:19;;;;;;;9.80;6.47;;;;;;;;;;5072141;28;20212;-83
2022/12/07 11:30:51;;;;;;;10.30;7.40;;;;;;;;;;5070593;28;20243;-83
2022/12/07 11:33:20;;;;;;;10.77;7.33;;;;;;;;;;5072581;28;20221;-83
2022/12/07 11:35:56;;;;;;;12.57;8.63;;;;;;;;;;5070977;28;20233;-83
2022/12/07 11:38:25;;;;;;;8.87;6.50;;;;;;;;;;5072857;28;20197;-83
2022/12/07 11:40:55;;;;;;;8.70;6.63;;;;;;;;;;5064737;28;20243;-83
2022/12/07 11:43:24;;;;;;;7.23;5.70;;;;;;;;;;5073715;28;20201;-83
2022/12/07 11:45:56;;;;;;;12.80;6.80;;;;;;;;;;5072920;28;20648;-83
2022/12/07 11:48:26;;;;;;;8.30;6.43;;;;;;;;;;5072672;28;20685;-83
2022/12/07 11:50:56;;;;;;;11.13;7.33;;;;;;;;;;5072881;28;20241;-83
2022/12/07 11:53:26;;;;;;;7.93;6.47;;;;;;;;;;5071070;28;20240;-84
2022/12/07 11:55:55;;;;;;;11.77;6.93;;;;;;;;;;5070966;28;20237;-83
2022/12/07 11:58:37;;;;;;;10.80;6.77;;;;;;;;;;5071284;28;20197;-83
2022/12/07 12:01:10;;;;;;;9.40;6.30;;;;;;;;;;5070628;28;20251;-83
2022/12/07 12:03:40;;;;;;;8.57;6.00;;;;;;;;;;5070061;28;20671;-83
2022/12/07 12:06:08;;;;;;;8.63;6.20;;;;;;;;;;5071141;28;20229;-84
2022/12/07 12:08:40;;;;;;;10.00;6.77;;;;;;;;;;5071250;28;20661;-82
2022/12/07 12:11:15;;;;;;;8.37;5.87;;;;;;;;;;5070538;28;20608;-83
2022/12/07 12:14:00;;;;;;;11.70;6.67;;;;;;;;;;5070388;28;20686;-83
2022/12/07 12:16:40;;;;;;;6.87;5.60;;;;;;;;;;5070738;28;20225;-83
2022/12/07 12:19:16;;;;;;;6.43;4.83;;;;;;;;;;5070555;28;20207;-83
2022/12/07 12:21:47;;;;;;;7.67;5.40;;;;;;;;;;5070437;28;20235;-83
2022/12/07 12:24:16;;;;;;;6.33;4.70;;;;;;;;;;5070936;28;20227;-83
2022/12/07 12:26:51;;;;;;;5.73;4.40;;;;;;;;;;5070231;28;20228;-83
2022/12/07 12:29:24;;;;;;;6.43;4.60;;;;;;;;;;5069769;28;20657;-83
2022/12/07 12:32:06;;;;;;;4.40;3.77;;;;;;;;;;5070472;28;20239;-83
2022/12/07 12:34:39;;;;;;;5.30;3.93;;;;;;;;;;5070019;28;20229;-83
2022/12/07 12:37:36;;;;;;;4.00;3.57;;;;;;;;;;5070583;28;20697;-82
2022/12/07 12:40:22;;;;;;;4.03;3.37;;;;;;;;;;5068800;28;20211;-83
2022/12/07 12:42:50;;;;;;;4.27;3.30;;;;;;;;;;5070853;28;20235;-83
2022/12/07 12:45:22;;;;;;;4.50;3.40;;;;;;;;;;5070555;28;20198;-83
2022/12/07 12:47:58;;;;;;;6.10;3.80;;;;;;;;;;5070585;28;20202;-83
2022/12/07 12:50:27;;;;;;;5.70;3.80;;;;;;;;;;5069846;28;20233;-83
2022/12/07 12:53:00;;;;;;;5.90;4.30;;;;;;;;;;5069929;28;20708;-84
2022/12/07 12:55:48;;;;;;;7.40;4.57;;;;;;;;;;5069483;28;20248;-83
2022/12/07 12:58:45;;;;;;;7.27;5.20;;;;;;;;;;5069544;28;20576;-83
2022/12/07 13:01:46;;;;;;;7.73;5.03;;;;;;;;;;5028992;28;20266;-83
2022/12/07 13:04:31;;;;;;;5.73;5.13;;;;;;;;;;5071877;28;20204;-83
2022/12/07 13:06:58;;;;;;;7.93;5.73;;;;;;;;;;5058186;28;20700;-83
2022/12/07 13:09:28;;;;;;;7.23;5.33;;;;;;;;;;5071582;28;20209;-83
2022/12/07 13:12:00;;;;;;;5.80;4.60;;;;;;;;;;5070988;28;20233;-83
2022/12/07 13:14:46;;;;;;;8.63;5.73;;;;;;;;;;5071338;28;20701;-83
2022/12/07 13:17:14;;;;;;;9.87;5.60;;;;;;;;;;5071057;28;20233;-82
2022/12/07 13:19:59;;;;;;;8.20;4.93;;;;;;;;;;5071643;28;20223;-83
2022/12/07 13:22:54;;;;;;;7.10;4.47;;;;;;;;;;5070900;28;20291;-83
2022/12/07 13:25:28;;;;;;;6.90;4.70;;;;;;;;;;5071214;28;20186;-83
2022/12/07 13:27:59;;;;;;;8.17;4.47;;;;;;;;;;5071638;28;20185;-83
2022/12/07 13:30:27;;;;;;;9.93;3.80;;;;;;;;;;5071179;28;20233;-82
2022/12/07 13:32:54;;;;;;;6.67;4.93;;;;;;;;;;5071554;28;20197;-83
2022/12/07 13:35:37;;;;;;;5.47;4.20;;;;;;;;;;5071095;28;20221;-84
2022/12/07 13:38:06;;;;;;;7.33;4.40;;;;;;;;;;5071098;28;20251;-83
2022/12/07 13:40:34;;;;;;;9.20;4.93;;;;;;;;;;5070420;28;20940;-82
2022/12/07 13:43:02;;;;;;;6.07;4.63;;;;;;;;;;5071703;28;20273;-87
2022/12/07 13:45:48;;;;;;;10.40;4.50;;;;;;;;;;5071197;28;20328;-83
2022/12/07 13:48:17;;;;;;;5.37;3.87;;;;;;;;;;5071421;28;20190;-82
2022/12/07 13:50:53;;;;;;;7.60;3.93;;;;;;;;;;5071006;28;20233;-84
2022/12/07 13:53:20;;;;;;;2.47;2.33;;;;;;;;;;5071147;28;20205;-83
2022/12/07 13:55:49;;;;;;;4.40;3.37;;;;;;;;;;5069878;28;20229;-82
2022/12/07 13:58:16;;;;;;;3.63;3.10;;;;;;;;;;5069842;28;20201;-83
2022/12/07 14:00:44;;;;;;;3.83;3.50;;;;;;;;;;5068948;28;20228;-83
2022/12/07 14:03:31;;;;;;;4.40;3.40;;;;;;;;;;5069284;28;20212;-84
2022/12/07 14:06:05;;;;;;;6.40;3.43;;;;;;;;;;5068838;28;20240;-82
2022/12/07 14:08:33;;;;;;;8.37;4.17;;;;;;;;;;5068469;28;20835;-84
2022/12/07 14:11:01;;;;;;;5.63;3.70;;;;;;;;;;5070653;28;20609;-86
2022/12/07 14:13:31;;;;;;;5.40;3.13;;;;;;;;;;5070043;28;20572;-85
2022/12/07 14:15:58;;;;;;;5.13;3.50;;;;;;;;;;5070124;28;20225;-84
2022/12/07 14:18:29;;;;;;;5.47;3.37;;;;;;;;;;5069832;28;20205;-84
2022/12/07 14:21:04;;;;;;;6.60;5.10;;;;;;;;;;5070401;28;20233;-85
2022/12/07 14:23:31;;;;;;;10.00;4.07;;;;;;;;;;5070483;28;20196;-84
2022/12/07 14:26:08;;;;;;;9.20;4.20;;;;;;;;;;5069447;28;20232;-86
2022/12/07 14:28:36;;;;;;;6.43;4.27;;;;;;;;;;5069688;28;20574;-86
2022/12/07 14:31:04;;;;;;;6.87;4.37;;;;;;;;;;5070210;28;20263;-86
2022/12/07 14:33:31;;;;;;;5.60;3.80;;;;;;;;;;5071409;28;20212;-86
2022/12/07 14:35:58;;;;;;;6.47;3.87;;;;;;;;;;5069523;28;20240;-86
2022/12/07 14:38:26;;;;;;;8.53;3.47;;;;;;;;;;5071433;28;20628;-86
2022/12/07 14:40:54;;;;;;;16.47;4.60;;;;;;;;;;5068967;28;20319;-87
2022/12/07 14:43:22;;;;;;;6.37;4.00;;;;;;;;;;5070340;28;20661;-84
2022/12/07 14:45:50;;;;;;;6.13;4.40;;;;;;;;;;5069426;28;20233;-84
2022/12/07 14:48:17;;;;;;;6.50;4.83;;;;;;;;;;5070087;28;20202;-84
2022/12/07 14:50:46;;;;;;;5.47;4.53;;;;;;;;;;5070371;28;20233;-83